sensor_id;sensor_type;location;lat;lon;timestamp;pressure;altitude;pressure_sealevel;temperature;humidity
40285;BME280;25997;50.214;19.354;2022-08-03T00:00:17;98105.41;;;17.23;56.19
40285;BME280;25997;50.214;19.354;2022-08-03T00:03:20;98106.31;;;17.22;55.90
40285;BME280;25997;50.214;19.354;2022-08-03T00:06:23;98111.59;;;17.24;56.08
40285;BME280;25997;50.214;19.354;2022-08-03T00:09:25;98111.59;;;17.22;56.46
40285;BME280;25997;50.214;19.354;2022-08-03T00:12:28;98115.13;;;17.23;56.54
40285;BME280;25997;50.214;19.354;2022-08-03T00:15:32;98112.47;;;17.30;56.30
40285;BME280;25997;50.214;19.354;2022-08-03T00:22:12;98100.09;;;17.41;56.89
40285;BME280;25997;50.214;19.354;2022-08-03T00:25:15;98111.59;;;17.54;57.14
40285;BME280;25997;50.214;19.354;2022-08-03T00:28:19;98100.94;;;17.69;56.62
40285;BME280;25997;50.214;19.354;2022-08-03T00:31:23;98108.03;;;17.71;56.00
40285;BME280;25997;50.214;19.354;2022-08-03T00:34:25;98108.91;;;17.67;55.63
40285;BME280;25997;50.214;19.354;2022-08-03T00:37:28;98106.31;;;17.55;55.91
40285;BME280;25997;50.214;19.354;2022-08-03T00:40:30;98108.94;;;17.49;57.07
40285;BME280;25997;50.214;19.354;2022-08-03T00:43:33;98108.97;;;17.51;57.46
40285;BME280;25997;50.214;19.354;2022-08-03T00:46:37;98115.16;;;17.57;57.54
40285;BME280;25997;50.214;19.354;2022-08-03T00:49:40;98108.03;;;17.62;57.32
40285;BME280;25997;50.214;19.354;2022-08-03T00:52:43;98105.38;;;17.73;57.07
40285;BME280;25997;50.214;19.354;2022-08-03T00:55:46;98108.03;;;17.77;56.70
40285;BME280;25997;50.214;19.354;2022-08-03T00:58:49;98102.72;;;17.73;56.59
40285;BME280;25997;50.214;19.354;2022-08-03T01:01:54;98102.72;;;17.67;57.43
40285;BME280;25997;50.214;19.354;2022-08-03T01:04:57;98106.25;;;17.67;57.73
40285;BME280;25997;50.214;19.354;2022-08-03T01:08:04;98109.78;;;17.74;57.72
40285;BME280;25997;50.214;19.354;2022-08-03T01:11:14;98107.13;;;17.86;57.44
40285;BME280;25997;50.214;19.354;2022-08-03T01:14:26;98106.25;;;17.93;57.20
40285;BME280;25997;50.214;19.354;2022-08-03T01:17:39;98108.00;;;17.88;56.60
40285;BME280;25997;50.214;19.354;2022-08-03T01:20:47;98109.81;;;17.75;56.75
40285;BME280;25997;50.214;19.354;2022-08-03T01:23:58;98105.38;;;17.65;58.04
40285;BME280;25997;50.214;19.354;2022-08-03T01:27:08;98117.78;;;17.71;57.83
40285;BME280;25997;50.214;19.354;2022-08-03T01:30:14;98115.13;;;17.63;56.99
40285;BME280;25997;50.214;19.354;2022-08-03T01:33:19;98113.34;;;17.38;56.07
40285;BME280;25997;50.214;19.354;2022-08-03T01:36:26;98115.97;;;17.17;55.64
40285;BME280;25997;50.214;19.354;2022-08-03T01:39:32;98115.94;;;17.00;55.64
40285;BME280;25997;50.214;19.354;2022-08-03T01:42:37;98122.13;;;16.93;55.87
40285;BME280;25997;50.214;19.354;2022-08-03T01:45:42;98115.94;;;16.84;56.30
40285;BME280;25997;50.214;19.354;2022-08-03T01:48:47;98114.16;;;16.83;56.37
40285;BME280;25997;50.214;19.354;2022-08-03T01:51:51;98118.56;;;16.85;56.48
40285;BME280;25997;50.214;19.354;2022-08-03T01:54:54;98102.66;;;16.91;56.87
40285;BME280;25997;50.214;19.354;2022-08-03T01:58:01;98113.28;;;16.94;56.46
40285;BME280;25997;50.214;19.354;2022-08-03T02:01:08;98095.59;;;16.90;56.11
40285;BME280;25997;50.214;19.354;2022-08-03T02:04:12;98102.63;;;16.78;56.37
40285;BME280;25997;50.214;19.354;2022-08-03T02:07:16;98104.31;;;16.52;55.99
40285;BME280;25997;50.214;19.354;2022-08-03T02:10:20;98104.25;;;16.39;57.08
40285;BME280;25997;50.214;19.354;2022-08-03T02:13:23;98102.47;;;16.38;57.01
40285;BME280;25997;50.214;19.354;2022-08-03T02:16:30;98099.84;;;16.41;57.39
40285;BME280;25997;50.214;19.354;2022-08-03T02:19:34;98106.97;;;16.45;57.42
40285;BME280;25997;50.214;19.354;2022-08-03T02:22:39;98101.66;;;16.45;58.04
40285;BME280;25997;50.214;19.354;2022-08-03T02:25:44;98107.88;;;16.57;58.80
40285;BME280;25997;50.214;19.354;2022-08-03T02:28:51;98106.16;;;16.72;59.26
40285;BME280;25997;50.214;19.354;2022-08-03T02:31:59;98102.66;;;16.84;59.09
40285;BME280;25997;50.214;19.354;2022-08-03T02:35:07;98102.69;;;16.97;58.94
40285;BME280;25997;50.214;19.354;2022-08-03T02:38:12;98106.22;;;17.05;58.55
40285;BME280;25997;50.214;19.354;2022-08-03T02:41:20;98097.38;;;17.00;58.47
40285;BME280;25997;50.214;19.354;2022-08-03T02:44:24;98092.97;;;16.95;58.52
40285;BME280;25997;50.214;19.354;2022-08-03T02:47:30;98100.03;;;16.90;58.05
40285;BME280;25997;50.214;19.354;2022-08-03T02:50:35;98094.72;;;16.84;58.14
40285;BME280;25997;50.214;19.354;2022-08-03T02:53:39;98102.63;;;16.69;57.28
40285;BME280;25997;50.214;19.354;2022-08-03T02:56:45;98104.34;;;16.53;57.24
40285;BME280;25997;50.214;19.354;2022-08-03T02:59:50;98108.63;;;16.24;56.48
40285;BME280;25997;50.214;19.354;2022-08-03T03:02:58;98105.69;;;15.78;56.66
40285;BME280;25997;50.214;19.354;2022-08-03T03:06:02;98104.69;;;15.61;56.97
40285;BME280;25997;50.214;19.354;2022-08-03T03:09:04;98103.75;;;15.56;57.49
40285;BME280;25997;50.214;19.354;2022-08-03T03:12:09;98103.78;;;15.62;57.96
40285;BME280;25997;50.214;19.354;2022-08-03T03:15:12;98111.84;;;15.76;58.04
40285;BME280;25997;50.214;19.354;2022-08-03T03:18:16;98110.22;;;15.96;58.46
40285;BME280;25997;50.214;19.354;2022-08-03T03:21:20;98115.59;;;16.10;58.07
40285;BME280;25997;50.214;19.354;2022-08-03T03:24:23;98108.56;;;16.18;57.70
40285;BME280;25997;50.214;19.354;2022-08-03T03:27:26;98113.88;;;16.15;57.05
40285;BME280;25997;50.214;19.354;2022-08-03T03:30:29;98112.84;;;15.92;56.93
40285;BME280;25997;50.214;19.354;2022-08-03T03:33:34;98111.97;;;15.93;57.82
40285;BME280;25997;50.214;19.354;2022-08-03T03:36:37;98108.47;;;15.98;58.35
40285;BME280;25997;50.214;19.354;2022-08-03T03:39:39;98110.34;;;16.19;59.43
40285;BME280;25997;50.214;19.354;2022-08-03T03:42:42;98110.47;;;16.44;59.94
40285;BME280;25997;50.214;19.354;2022-08-03T03:45:46;98108.81;;;16.71;59.75
40285;BME280;25997;50.214;19.354;2022-08-03T03:48:51;98107.97;;;16.96;60.10
40285;BME280;25997;50.214;19.354;2022-08-03T03:51:53;98117.75;;;17.15;59.75
40285;BME280;25997;50.214;19.354;2022-08-03T03:54:56;98117.81;;;17.29;59.64
40285;BME280;25997;50.214;19.354;2022-08-03T03:57:59;98124.88;;;17.34;58.93
40285;BME280;25997;50.214;19.354;2022-08-03T04:04:05;98125.75;;;17.23;59.06
40285;BME280;25997;50.214;19.354;2022-08-03T04:07:23;98133.66;;;17.16;57.73
40285;BME280;25997;50.214;19.354;2022-08-03T04:10:47;98133.66;;;17.13;56.54
40285;BME280;25997;50.214;19.354;2022-08-03T04:14:05;98131.03;;;17.15;56.74
40285;BME280;25997;50.214;19.354;2022-08-03T04:17:10;98138.97;;;17.15;56.83
40285;BME280;25997;50.214;19.354;2022-08-03T04:20:16;98136.31;;;17.15;56.54
40285;BME280;25997;50.214;19.354;2022-08-03T04:23:23;98139.88;;;17.12;55.90
40285;BME280;25997;50.214;19.354;2022-08-03T04:26:30;98144.25;;;16.98;55.51
40285;BME280;25997;50.214;19.354;2022-08-03T04:29:36;98152.16;;;16.77;55.46
40285;BME280;25997;50.214;19.354;2022-08-03T04:32:42;98156.50;;;16.60;55.56
40285;BME280;25997;50.214;19.354;2022-08-03T04:35:51;98156.44;;;16.43;55.72
40285;BME280;25997;50.214;19.354;2022-08-03T04:38:59;98166.03;;;16.28;56.41
40285;BME280;25997;50.214;19.354;2022-08-03T04:42:06;98161.56;;;16.18;56.81
40285;BME280;25997;50.214;19.354;2022-08-03T04:45:11;98154.56;;;16.24;57.17
40285;BME280;25997;50.214;19.354;2022-08-03T04:48:14;98166.97;;;16.36;57.56
40285;BME280;25997;50.214;19.354;2022-08-03T04:51:19;98164.44;;;16.54;57.52
40285;BME280;25997;50.214;19.354;2022-08-03T04:54:22;98160.06;;;16.71;57.97
40285;BME280;25997;50.214;19.354;2022-08-03T04:57:25;98169.91;;;16.99;57.86
40285;BME280;25997;50.214;19.354;2022-08-03T05:00:28;98174.41;;;17.23;57.54
40285;BME280;25997;50.214;19.354;2022-08-03T05:03:31;98168.25;;;17.44;57.52
40285;BME280;25997;50.214;19.354;2022-08-03T05:06:35;98171.78;;;17.62;57.57
40285;BME280;25997;50.214;19.354;2022-08-03T05:09:37;98176.22;;;17.81;57.85
40285;BME280;25997;50.214;19.354;2022-08-03T05:12:40;98175.31;;;18.10;58.33
40285;BME280;25997;50.214;19.354;2022-08-03T05:15:43;98177.00;;;18.48;58.22
40285;BME280;25997;50.214;19.354;2022-08-03T05:18:45;98169.75;;;18.87;57.86
40285;BME280;25997;50.214;19.354;2022-08-03T05:21:50;98165.97;;;19.30;57.47
40285;BME280;25997;50.214;19.354;2022-08-03T05:24:52;98171.97;;;19.65;57.10
40285;BME280;25997;50.214;19.354;2022-08-03T05:27:55;98172.63;;;19.90;56.79
40285;BME280;25997;50.214;19.354;2022-08-03T05:30:57;98169.66;;;20.25;56.63
40285;BME280;25997;50.214;19.354;2022-08-03T05:34:00;98172.03;;;20.52;56.23
40285;BME280;25997;50.214;19.354;2022-08-03T05:37:04;98174.47;;;20.74;55.78
40285;BME280;25997;50.214;19.354;2022-08-03T05:40:08;98180.50;;;20.89;55.57
40285;BME280;25997;50.214;19.354;2022-08-03T05:43:11;98182.09;;;21.03;55.17
40285;BME280;25997;50.214;19.354;2022-08-03T05:46:13;98185.56;;;21.10;54.83
40285;BME280;25997;50.214;19.354;2022-08-03T05:49:16;98175.81;;;21.06;54.95
40285;BME280;25997;50.214;19.354;2022-08-03T05:52:20;98179.47;;;20.99;54.70
40285;BME280;25997;50.214;19.354;2022-08-03T05:55:23;98183.00;;;21.01;54.97
40285;BME280;25997;50.214;19.354;2022-08-03T05:58:26;98184.75;;;21.03;55.12
40285;BME280;25997;50.214;19.354;2022-08-03T06:01:29;98183.78;;;21.10;54.80
40285;BME280;25997;50.214;19.354;2022-08-03T06:04:33;98183.03;;;20.99;54.79
40285;BME280;25997;50.214;19.354;2022-08-03T06:07:37;98182.09;;;21.03;54.94
40285;BME280;25997;50.214;19.354;2022-08-03T06:10:39;98177.56;;;21.08;54.87
40285;BME280;25997;50.214;19.354;2022-08-03T06:13:42;98179.22;;;21.17;55.03
40285;BME280;25997;50.214;19.354;2022-08-03T06:16:45;98176.38;;;21.29;54.74
40285;BME280;25997;50.214;19.354;2022-08-03T06:19:51;98179.66;;;21.49;54.28
40285;BME280;25997;50.214;19.354;2022-08-03T06:22:55;98181.09;;;21.73;54.21
40285;BME280;25997;50.214;19.354;2022-08-03T06:25:57;98184.25;;;21.97;54.06
40285;BME280;25997;50.214;19.354;2022-08-03T06:29:00;98179.66;;;22.05;54.04
40285;BME280;25997;50.214;19.354;2022-08-03T06:32:03;98186.50;;;22.22;53.79
40285;BME280;25997;50.214;19.354;2022-08-03T06:35:07;98181.88;;;22.30;53.50
40285;BME280;25997;50.214;19.354;2022-08-03T06:38:12;98181.75;;;22.36;53.43
40285;BME280;25997;50.214;19.354;2022-08-03T06:41:14;98189.78;;;22.37;53.26
40285;BME280;25997;50.214;19.354;2022-08-03T06:44:17;98188.81;;;22.41;52.91
40285;BME280;25997;50.214;19.354;2022-08-03T06:47:19;98195.09;;;22.39;52.95
40285;BME280;25997;50.214;19.354;2022-08-03T06:50:22;98190.59;;;22.41;52.73
40285;BME280;25997;50.214;19.354;2022-08-03T06:53:26;98189.47;;;22.52;52.66
40285;BME280;25997;50.214;19.354;2022-08-03T06:56:29;98195.66;;;22.56;53.23
40285;BME280;25997;50.214;19.354;2022-08-03T06:59:31;98196.03;;;22.38;53.29
40285;BME280;25997;50.214;19.354;2022-08-03T07:02:34;98205.16;;;22.26;53.82
40285;BME280;25997;50.214;19.354;2022-08-03T07:05:37;98202.22;;;22.38;53.38
40285;BME280;25997;50.214;19.354;2022-08-03T07:08:41;98205.50;;;22.55;53.17
40285;BME280;25997;50.214;19.354;2022-08-03T07:11:43;98209.72;;;22.68;52.54
40285;BME280;25997;50.214;19.354;2022-08-03T07:14:46;98197.84;;;22.81;52.21
40285;BME280;25997;50.214;19.354;2022-08-03T07:17:48;98194.19;;;22.85;52.57
40285;BME280;25997;50.214;19.354;2022-08-03T07:20:51;98202.94;;;22.93;51.75
40285;BME280;25997;50.214;19.354;2022-08-03T07:23:55;98199.97;;;23.07;51.74
40285;BME280;25997;50.214;19.354;2022-08-03T07:26:58;98200.66;;;23.18;51.58
40285;BME280;25997;50.214;19.354;2022-08-03T07:30:00;98196.78;;;23.33;51.46
40285;BME280;25997;50.214;19.354;2022-08-03T07:33:03;98192.78;;;23.50;51.26
40285;BME280;25997;50.214;19.354;2022-08-03T07:36:06;98194.31;;;23.60;50.18
40285;BME280;25997;50.214;19.354;2022-08-03T07:39:10;98200.13;;;23.82;49.00
40285;BME280;25997;50.214;19.354;2022-08-03T07:42:13;98198.66;;;24.03;49.04
40285;BME280;25997;50.214;19.354;2022-08-03T07:45:15;98195.63;;;24.16;48.54
40285;BME280;25997;50.214;19.354;2022-08-03T07:48:18;98191.00;;;23.88;48.98
40285;BME280;25997;50.214;19.354;2022-08-03T07:51:20;98193.09;;;23.75;48.77
40285;BME280;25997;50.214;19.354;2022-08-03T07:54:25;98193.09;;;23.74;48.77
40285;BME280;25997;50.214;19.354;2022-08-03T07:57:27;98194.09;;;23.71;48.60
40285;BME280;25997;50.214;19.354;2022-08-03T08:00:31;98192.84;;;23.86;48.94
40285;BME280;25997;50.214;19.354;2022-08-03T08:03:33;98197.56;;;24.11;48.15
40285;BME280;25997;50.214;19.354;2022-08-03T08:06:36;98195.91;;;24.41;47.45
40285;BME280;25997;50.214;19.354;2022-08-03T08:09:40;98188.00;;;24.67;47.41
40285;BME280;25997;50.214;19.354;2022-08-03T08:12:42;98197.75;;;25.03;46.92
40285;BME280;25997;50.214;19.354;2022-08-03T08:15:45;98196.41;;;25.47;46.57
40285;BME280;25997;50.214;19.354;2022-08-03T08:18:48;98194.72;;;25.72;45.88
40285;BME280;25997;50.214;19.354;2022-08-03T08:21:50;98199.19;;;26.01;45.34
40285;BME280;25997;50.214;19.354;2022-08-03T08:24:54;98200.63;;;26.11;43.92
40285;BME280;25997;50.214;19.354;2022-08-03T08:27:57;98202.53;;;26.08;44.18
40285;BME280;25997;50.214;19.354;2022-08-03T08:31:01;98205.69;;;26.20;43.77
40285;BME280;25997;50.214;19.354;2022-08-03T08:34:04;98202.34;;;26.40;43.59
40285;BME280;25997;50.214;19.354;2022-08-03T08:37:07;98199.59;;;26.41;42.72
40285;BME280;25997;50.214;19.354;2022-08-03T08:40:11;98202.16;;;26.44;42.28
40285;BME280;25997;50.214;19.354;2022-08-03T08:43:14;98207.16;;;26.57;42.29
40285;BME280;25997;50.214;19.354;2022-08-03T08:46:18;98203.88;;;26.96;42.29
40285;BME280;25997;50.214;19.354;2022-08-03T08:49:22;98202.47;;;27.11;42.36
40285;BME280;25997;50.214;19.354;2022-08-03T08:52:29;98207.09;;;27.31;42.09
40285;BME280;25997;50.214;19.354;2022-08-03T08:55:34;98203.34;;;27.58;41.78
40285;BME280;25997;50.214;19.354;2022-08-03T08:58:37;98207.25;;;27.94;41.00
40285;BME280;25997;50.214;19.354;2022-08-03T09:01:43;98203.16;;;28.06;40.97
40285;BME280;25997;50.214;19.354;2022-08-03T09:04:45;98212.91;;;28.10;40.34
40285;BME280;25997;50.214;19.354;2022-08-03T09:07:49;98215.69;;;28.08;40.43
40285;BME280;25997;50.214;19.354;2022-08-03T09:10:54;98208.84;;;28.21;39.77
40285;BME280;25997;50.214;19.354;2022-08-03T09:13:57;98211.34;;;28.26;38.93
40285;BME280;25997;50.214;19.354;2022-08-03T09:17:01;98204.16;;;28.25;39.24
40285;BME280;25997;50.214;19.354;2022-08-03T09:20:06;98209.66;;;28.02;39.31
40285;BME280;25997;50.214;19.354;2022-08-03T09:23:09;98208.25;;;27.70;39.35
40285;BME280;25997;50.214;19.354;2022-08-03T09:26:19;98210.69;;;27.31;39.74
40285;BME280;25997;50.214;19.354;2022-08-03T09:29:22;98204.22;;;26.87;40.63
40285;BME280;25997;50.214;19.354;2022-08-03T09:32:24;98207.16;;;26.57;40.40
40285;BME280;25997;50.214;19.354;2022-08-03T09:35:27;98202.34;;;26.40;40.95
40285;BME280;25997;50.214;19.354;2022-08-03T09:38:31;98200.72;;;26.34;40.35
40285;BME280;25997;50.214;19.354;2022-08-03T09:41:35;98203.81;;;26.49;39.66
40285;BME280;25997;50.214;19.354;2022-08-03T09:44:39;98204.28;;;26.61;39.46
40285;BME280;25997;50.214;19.354;2022-08-03T09:47:42;98204.28;;;26.61;39.03
40285;BME280;25997;50.214;19.354;2022-08-03T09:50:47;98193.66;;;26.81;38.87
40285;BME280;25997;50.214;19.354;2022-08-03T09:53:50;98201.34;;;27.40;38.70
40285;BME280;25997;50.214;19.354;2022-08-03T09:56:54;98199.03;;;27.97;38.37
40285;BME280;25997;50.214;19.354;2022-08-03T10:00:08;98191.91;;;28.58;37.44
40285;BME280;25997;50.214;19.354;2022-08-03T10:03:15;98200.75;;;29.41;37.37
40285;BME280;25997;50.214;19.354;2022-08-03T10:06:18;98196.56;;;30.08;36.64
40285;BME280;25997;50.214;19.354;2022-08-03T10:09:22;98192.06;;;30.94;35.92
40285;BME280;25997;50.214;19.354;2022-08-03T10:12:26;98204.19;;;31.70;34.71
40285;BME280;25997;50.214;19.354;2022-08-03T10:15:29;98200.69;;;31.68;34.53
40285;BME280;25997;50.214;19.354;2022-08-03T10:18:32;98196.75;;;31.73;35.41
40285;BME280;25997;50.214;19.354;2022-08-03T10:21:37;98196.31;;;31.81;33.86
40285;BME280;25997;50.214;19.354;2022-08-03T10:24:47;98202.44;;;32.31;34.10
40285;BME280;25997;50.214;19.354;2022-08-03T10:27:53;98206.06;;;32.61;32.90
40285;BME280;25997;50.214;19.354;2022-08-03T10:30:57;98198.38;;;32.68;33.66
40285;BME280;25997;50.214;19.354;2022-08-03T10:34:01;98199.03;;;33.31;32.12
40285;BME280;25997;50.214;19.354;2022-08-03T10:37:09;98187.06;;;33.33;31.42
40285;BME280;25997;50.214;19.354;2022-08-03T10:40:14;98196.97;;;33.49;32.16
40285;BME280;25997;50.214;19.354;2022-08-03T10:43:20;98200.13;;;33.97;31.40
40285;BME280;25997;50.214;19.354;2022-08-03T10:46:23;98197.66;;;34.34;30.57
40285;BME280;25997;50.214;19.354;2022-08-03T10:49:28;98194.09;;;34.46;30.21
40285;BME280;25997;50.214;19.354;2022-08-03T10:52:31;98195.25;;;35.20;28.89
40285;BME280;25997;50.214;19.354;2022-08-03T10:55:34;98189.94;;;34.92;28.29
40285;BME280;25997;50.214;19.354;2022-08-03T10:58:56;98186.34;;;34.79;28.75
40285;BME280;25997;50.214;19.354;2022-08-03T11:01:58;98186.25;;;34.54;28.24
40285;BME280;25997;50.214;19.354;2022-08-03T11:05:23;98190.09;;;34.51;26.62
40285;BME280;25997;50.214;19.354;2022-08-03T11:08:29;98182.28;;;33.92;28.85
40285;BME280;25997;50.214;19.354;2022-08-03T11:11:32;98176.97;;;33.76;28.54
40285;BME280;25997;50.214;19.354;2022-08-03T11:14:47;98177.47;;;33.69;27.74
40285;BME280;25997;50.214;19.354;2022-08-03T11:18:07;98176.91;;;33.50;28.12
40285;BME280;25997;50.214;19.354;2022-08-03T11:21:10;98170.84;;;33.87;28.57
40285;BME280;25997;50.214;19.354;2022-08-03T11:28:23;98171.34;;;33.23;27.28
40285;BME280;25997;50.214;19.354;2022-08-03T11:31:46;98162.41;;;32.49;28.49
40285;BME280;25997;50.214;19.354;2022-08-03T11:35:06;98158.75;;;32.64;28.06
40285;BME280;25997;50.214;19.354;2022-08-03T11:38:10;98160.66;;;33.20;28.24
40285;BME280;25997;50.214;19.354;2022-08-03T11:41:31;98168.13;;;33.87;26.81
40285;BME280;25997;50.214;19.354;2022-08-03T11:44:40;98156.00;;;33.22;26.91
40285;BME280;25997;50.214;19.354;2022-08-03T11:47:44;98150.63;;;32.48;28.40
40285;BME280;25997;50.214;19.354;2022-08-03T11:50:48;98140.50;;;32.21;28.51
40285;BME280;25997;50.214;19.354;2022-08-03T11:53:52;98149.81;;;32.62;28.12
40285;BME280;25997;50.214;19.354;2022-08-03T11:56:55;98145.28;;;33.05;28.92
40285;BME280;25997;50.214;19.354;2022-08-03T11:59:58;98146.16;;;33.47;27.91
40285;BME280;25997;50.214;19.354;2022-08-03T12:03:04;98148.94;;;33.88;26.50
40285;BME280;25997;50.214;19.354;2022-08-03T12:06:09;98148.97;;;34.01;26.48
40285;BME280;25997;50.214;19.354;2022-08-03T12:09:15;98142.94;;;33.96;26.26
40285;BME280;25997;50.214;19.354;2022-08-03T12:12:18;98136.53;;;33.97;26.23
40285;BME280;25997;50.214;19.354;2022-08-03T12:15:24;98135.91;;;34.33;25.83
40285;BME280;25997;50.214;19.354;2022-08-03T12:18:28;98138.06;;;34.79;25.48
40285;BME280;25997;50.214;19.354;2022-08-03T12:21:31;98129.81;;;34.54;24.14
40285;BME280;25997;50.214;19.354;2022-08-03T12:24:40;98126.41;;;34.77;24.13
40285;BME280;25997;50.214;19.354;2022-08-03T12:27:43;98130.34;;;34.73;25.33
40285;BME280;25997;50.214;19.354;2022-08-03T12:30:47;98125.56;;;34.50;26.04
40285;BME280;25997;50.214;19.354;2022-08-03T12:33:57;98119.75;;;33.76;25.37
40285;BME280;25997;50.214;19.354;2022-08-03T12:37:04;98116.31;;;32.90;26.34
40285;BME280;25997;50.214;19.354;2022-08-03T12:40:07;98111.78;;;32.46;26.93
40285;BME280;25997;50.214;19.354;2022-08-03T12:43:12;98118.16;;;33.17;26.43
40285;BME280;25997;50.214;19.354;2022-08-03T12:46:16;98115.22;;;33.89;25.66
40285;BME280;25997;50.214;19.354;2022-08-03T12:49:20;98112.22;;;34.33;25.93
40285;BME280;25997;50.214;19.354;2022-08-03T12:52:23;98112.16;;;35.35;24.81
40285;BME280;25997;50.214;19.354;2022-08-03T12:55:27;98114.97;;;35.95;24.46
40285;BME280;25997;50.214;19.354;2022-08-03T12:58:34;98114.19;;;36.17;23.06
40285;BME280;25997;50.214;19.354;2022-08-03T13:01:37;98109.66;;;36.29;24.62
40285;BME280;25997;50.214;19.354;2022-08-03T13:04:41;98109.50;;;35.83;24.43
40285;BME280;25997;50.214;19.354;2022-08-03T13:07:45;98111.31;;;34.97;25.38
40285;BME280;25997;50.214;19.354;2022-08-03T13:10:48;98107.41;;;33.97;25.78
40285;BME280;25997;50.214;19.354;2022-08-03T13:13:52;98101.13;;;33.28;26.09
40285;BME280;25997;50.214;19.354;2022-08-03T13:16:55;98094.41;;;32.63;26.64
40285;BME280;25997;50.214;19.354;2022-08-03T13:19:59;98098.47;;;32.42;26.49
40285;BME280;25997;50.214;19.354;2022-08-03T13:23:01;98098.00;;;32.20;27.41
40285;BME280;25997;50.214;19.354;2022-08-03T13:26:04;98096.38;;;31.86;27.44
40285;BME280;25997;50.214;19.354;2022-08-03T13:29:07;98098.44;;;31.67;27.76
40285;BME280;25997;50.214;19.354;2022-08-03T13:32:09;98097.25;;;31.86;27.37
40285;BME280;25997;50.214;19.354;2022-08-03T13:35:13;98099.97;;;32.75;27.11
40285;BME280;25997;50.214;19.354;2022-08-03T13:38:16;98095.31;;;32.77;26.87
40285;BME280;25997;50.214;19.354;2022-08-03T13:41:19;98096.88;;;32.38;27.55
40285;BME280;25997;50.214;19.354;2022-08-03T13:44:22;98092.00;;;31.83;28.41
40285;BME280;25997;50.214;19.354;2022-08-03T13:47:25;98091.38;;;31.47;28.99
40285;BME280;25997;50.214;19.354;2022-08-03T13:50:29;98093.00;;;31.35;29.49
40285;BME280;25997;50.214;19.354;2022-08-03T13:53:32;98092.09;;;31.19;28.88
40285;BME280;25997;50.214;19.354;2022-08-03T13:56:34;98097.56;;;31.66;28.60
40285;BME280;25997;50.214;19.354;2022-08-03T13:59:37;98100.34;;;32.69;27.79
40285;BME280;25997;50.214;19.354;2022-08-03T14:02:40;98099.91;;;33.74;26.10
40285;BME280;25997;50.214;19.354;2022-08-03T14:05:44;98098.84;;;34.80;25.37
40285;BME280;25997;50.214;19.354;2022-08-03T14:08:47;98093.72;;;35.26;25.13
40285;BME280;25997;50.214;19.354;2022-08-03T14:11:50;98093.31;;;35.92;24.31
40285;BME280;25997;50.214;19.354;2022-08-03T14:14:52;98100.91;;;36.58;22.90
40285;BME280;25997;50.214;19.354;2022-08-03T14:17:55;98095.94;;;36.63;23.03
40285;BME280;25997;50.214;19.354;2022-08-03T14:21:00;98092.41;;;36.39;23.00
40285;BME280;25997;50.214;19.354;2022-08-03T14:24:03;98091.06;;;36.21;23.24
40285;BME280;25997;50.214;19.354;2022-08-03T14:27:06;98081.06;;;36.33;23.36
40285;BME280;25997;50.214;19.354;2022-08-03T14:30:10;98086.81;;;36.41;22.27
40285;BME280;25997;50.214;19.354;2022-08-03T14:33:13;98076.03;;;36.15;22.74
40285;BME280;25997;50.214;19.354;2022-08-03T14:36:17;98078.06;;;36.01;22.04
40285;BME280;25997;50.214;19.354;2022-08-03T14:39:19;98080.91;;;35.99;22.23
40285;BME280;25997;50.214;19.354;2022-08-03T14:42:22;98075.84;;;36.06;22.17
40285;BME280;25997;50.214;19.354;2022-08-03T14:45:24;98071.16;;;36.19;22.17
40285;BME280;25997;50.214;19.354;2022-08-03T14:48:27;98071.16;;;36.19;21.63
40285;BME280;25997;50.214;19.354;2022-08-03T14:51:31;98061.59;;;36.48;21.34
40285;BME280;25997;50.214;19.354;2022-08-03T14:54:34;98063.22;;;36.62;21.29
40285;BME280;25997;50.214;19.354;2022-08-03T14:57:36;98062.88;;;36.32;21.65
40285;BME280;25997;50.214;19.354;2022-08-03T15:00:39;98063.34;;;36.49;21.53
40285;BME280;25997;50.214;19.354;2022-08-03T15:03:42;98067.63;;;36.75;21.78
40285;BME280;25997;50.214;19.354;2022-08-03T15:06:48;98064.78;;;36.99;21.42
40285;BME280;25997;50.214;19.354;2022-08-03T15:09:50;98058.63;;;36.62;21.32
40285;BME280;25997;50.214;19.354;2022-08-03T15:12:53;98053.16;;;35.69;21.68
40285;BME280;25997;50.214;19.354;2022-08-03T15:15:55;98058.84;;;35.30;21.61
40285;BME280;25997;50.214;19.354;2022-08-03T15:18:58;98050.69;;;35.41;21.50
40285;BME280;25997;50.214;19.354;2022-08-03T15:22:02;98045.81;;;35.70;21.53
40285;BME280;25997;50.214;19.354;2022-08-03T15:25:05;98047.34;;;35.97;21.41
40285;BME280;25997;50.214;19.354;2022-08-03T15:28:08;98040.50;;;36.03;21.49
40285;BME280;25997;50.214;19.354;2022-08-03T15:31:11;98048.97;;;36.35;20.95
40285;BME280;25997;50.214;19.354;2022-08-03T15:34:13;98039.84;;;36.58;21.17
40285;BME280;25997;50.214;19.354;2022-08-03T15:37:18;98039.88;;;36.80;21.31
40285;BME280;25997;50.214;19.354;2022-08-03T15:40:20;98033.56;;;36.34;20.47
40285;BME280;25997;50.214;19.354;2022-08-03T15:43:23;98036.50;;;35.85;21.25
40285;BME280;25997;50.214;19.354;2022-08-03T15:46:26;98034.25;;;35.66;21.39
40285;BME280;25997;50.214;19.354;2022-08-03T15:49:28;98033.94;;;35.82;21.18
40285;BME280;25997;50.214;19.354;2022-08-03T15:52:32;98035.25;;;35.89;21.37
40285;BME280;25997;50.214;19.354;2022-08-03T15:55:35;98036.88;;;35.91;21.37
40285;BME280;25997;50.214;19.354;2022-08-03T15:58:38;98034.38;;;35.65;20.80
40285;BME280;25997;50.214;19.354;2022-08-03T16:01:40;98035.97;;;35.43;21.25
40285;BME280;25997;50.214;19.354;2022-08-03T16:04:43;98033.13;;;35.45;21.29
40285;BME280;25997;50.214;19.354;2022-08-03T16:07:47;98028.91;;;35.65;21.35
40285;BME280;25997;50.214;19.354;2022-08-03T16:10:53;98023.22;;;35.91;20.97
40285;BME280;25997;50.214;19.354;2022-08-03T16:13:56;98013.00;;;35.70;20.91